createdAt,value
2018-09-23T00:00:22.745Z,1.63
2018-09-23T00:02:51.790Z,3.00
2018-09-23T00:05:21.392Z,3.03
2018-09-23T00:07:50.585Z,1.53
2018-09-23T00:10:20.009Z,2.07
2018-09-23T00:12:49.573Z,2.30
2018-09-23T00:15:19.391Z,2.90
2018-09-23T00:17:49.351Z,3.20
2018-09-23T00:20:18.909Z,5.03
2018-09-23T00:22:48.042Z,4.07
2018-09-23T00:25:17.597Z,1.97
2018-09-23T00:27:46.536Z,2.57
2018-09-23T00:30:15.945Z,2.00
2018-09-23T00:32:45.632Z,3.33
2018-09-23T00:35:14.631Z,3.10
2018-09-23T00:37:44.860Z,3.23
2018-09-23T00:40:14.064Z,2.17
2018-09-23T00:42:44.580Z,4.97
2018-09-23T00:45:14.934Z,3.30
2018-09-23T00:47:44.390Z,2.23
2018-09-23T00:50:13.864Z,2.37
2018-09-23T00:52:44.783Z,2.00
2018-09-23T00:55:14.312Z,3.47
2018-09-23T00:57:43.558Z,2.43
2018-09-23T01:00:13.476Z,3.73
2018-09-23T01:02:43.890Z,2.60
2018-09-23T01:05:13.981Z,2.20
2018-09-23T01:07:44.921Z,2.97
2018-09-23T01:10:14.591Z,3.60
2018-09-23T01:12:44.145Z,3.00
2018-09-23T01:15:14.668Z,2.60
2018-09-23T01:17:44.516Z,2.50
2018-09-23T01:20:14.809Z,4.03
2018-09-23T01:22:45.301Z,4.00
2018-09-23T01:25:15.433Z,3.37
2018-09-23T01:27:45.149Z,3.93
2018-09-23T01:30:15.362Z,3.20
2018-09-23T01:32:46.729Z,3.23
2018-09-23T01:35:17.173Z,2.83
2018-09-23T01:37:47.105Z,3.33
2018-09-23T01:40:17.391Z,3.47
2018-09-23T01:42:46.789Z,3.87
2018-09-23T01:45:17.038Z,5.33
2018-09-23T01:47:46.514Z,2.60
2018-09-23T01:50:16.352Z,3.50
2018-09-23T01:52:46.058Z,3.60
2018-09-23T01:55:16.248Z,5.70
2018-09-23T01:57:46.996Z,3.77
2018-09-23T02:00:17.008Z,3.40
2018-09-23T02:02:47.905Z,3.23
2018-09-23T02:05:17.283Z,1.97
2018-09-23T02:07:46.901Z,3.10
2018-09-23T02:10:16.829Z,3.03
2018-09-23T02:12:46.072Z,6.00
2018-09-23T02:15:15.562Z,3.20
2018-09-23T02:17:44.658Z,2.30
2018-09-23T02:20:14.271Z,2.10
2018-09-23T02:22:43.621Z,2.17
2018-09-23T02:25:12.774Z,4.43
2018-09-23T02:27:43.117Z,4.63
2018-09-23T02:30:12.558Z,4.27
2018-09-23T02:32:41.994Z,2.03
2018-09-23T02:35:11.599Z,3.30
2018-09-23T02:37:41.228Z,2.90
2018-09-23T02:40:11.414Z,2.57
2018-09-23T02:42:41.400Z,2.50
2018-09-23T02:45:10.683Z,3.10
2018-09-23T02:47:40.782Z,3.37
2018-09-23T02:50:10.306Z,3.43
2018-09-23T02:52:40.474Z,5.33
2018-09-23T02:55:10.914Z,4.10
2018-09-23T02:57:39.988Z,5.77
2018-09-23T03:00:09.681Z,3.27
2018-09-23T03:02:39.950Z,2.63
2018-09-23T03:05:10.052Z,4.20
2018-09-23T03:07:39.194Z,3.40
2018-09-23T03:10:10.311Z,3.97
2018-09-23T03:12:40.523Z,4.57
2018-09-23T03:15:10.781Z,3.93
2018-09-23T03:17:40.550Z,3.13
2018-09-23T03:20:10.934Z,3.57
2018-09-23T03:22:45.861Z,3.10
2018-09-23T03:25:15.096Z,3.17
2018-09-23T03:27:44.937Z,6.00
2018-09-23T03:30:14.696Z,5.77
2018-09-23T03:32:44.164Z,6.13
2018-09-23T03:35:14.508Z,3.97
2018-09-23T03:37:44.024Z,7.10
2018-09-23T03:40:13.406Z,3.60
2018-09-23T03:42:43.722Z,5.20
2018-09-23T03:45:13.730Z,3.87
2018-09-23T03:47:43.394Z,6.50
2018-09-23T03:50:13.839Z,4.40
2018-09-23T03:52:43.385Z,3.87
2018-09-23T03:55:12.970Z,6.87
2018-09-23T03:57:42.101Z,3.73
2018-09-23T04:00:12.200Z,6.90
2018-09-23T04:02:41.386Z,6.07
2018-09-23T04:05:10.645Z,5.27
2018-09-23T04:07:40.846Z,5.50
2018-09-23T04:10:10.132Z,4.73
2018-09-23T04:12:39.940Z,6.00
2018-09-23T04:15:10.290Z,5.53
2018-09-23T04:17:40.701Z,4.33
2018-09-23T04:20:12.511Z,4.53
2018-09-23T04:22:47.734Z,6.07
2018-09-23T04:25:18.470Z,6.70
2018-09-23T04:27:48.116Z,4.80
2018-09-23T04:30:18.781Z,5.63
2018-09-23T04:32:49.956Z,5.37
2018-09-23T04:35:20.769Z,5.03
2018-09-23T04:37:49.884Z,4.93
2018-09-23T04:40:19.170Z,9.17
2018-09-23T04:42:48.454Z,5.97
2018-09-23T04:45:17.459Z,5.67
2018-09-23T04:47:46.985Z,4.30
2018-09-23T04:50:17.125Z,4.40
2018-09-23T04:52:47.179Z,5.53
2018-09-23T04:55:17.332Z,5.97
2018-09-23T04:57:47.122Z,5.43
2018-09-23T05:00:16.739Z,5.33
2018-09-23T05:02:46.128Z,4.43
2018-09-23T05:05:16.581Z,5.30
2018-09-23T05:07:46.358Z,5.53
2018-09-23T05:10:16.457Z,5.57
2018-09-23T05:12:45.806Z,9.03
2018-09-23T05:15:15.164Z,5.33
2018-09-23T05:17:44.480Z,5.37
2018-09-23T05:20:14.017Z,4.00
2018-09-23T05:22:43.786Z,7.07
2018-09-23T05:25:13.717Z,5.23
2018-09-23T05:27:43.636Z,6.00
2018-09-23T05:30:13.970Z,5.17
2018-09-23T05:32:43.517Z,3.73
2018-09-23T05:35:13.055Z,7.20
2018-09-23T05:37:42.585Z,5.07
2018-09-23T05:40:11.631Z,4.63
2018-09-23T05:42:41.777Z,5.50
2018-09-23T05:45:11.907Z,7.30
2018-09-23T05:47:41.444Z,6.43
2018-09-23T05:50:11.927Z,4.43
2018-09-23T05:52:41.072Z,4.67
2018-09-23T05:55:11.413Z,3.90
2018-09-23T05:57:40.918Z,6.80
2018-09-23T06:00:11.399Z,5.83
2018-09-23T06:02:41.749Z,4.00
2018-09-23T06:05:12.026Z,5.10
2018-09-23T06:07:41.766Z,5.77
2018-09-23T06:10:11.967Z,5.00
2018-09-23T06:12:41.926Z,5.23
2018-09-23T06:15:11.786Z,5.70
2018-09-23T06:17:41.550Z,4.57
2018-09-23T06:20:10.635Z,5.50
2018-09-23T06:22:40.971Z,9.93
2018-09-23T06:25:10.520Z,9.80
2018-09-23T06:27:42.121Z,5.77
2018-09-23T06:30:11.268Z,4.13
2018-09-23T06:32:41.880Z,4.73
2018-09-23T06:35:13.835Z,4.27
2018-09-23T06:37:44.471Z,5.97
2018-09-23T06:40:15.462Z,6.17
2018-09-23T06:42:47.131Z,5.77
2018-09-23T06:45:18.553Z,4.57
2018-09-23T06:47:48.687Z,5.00
2018-09-23T06:50:18.502Z,5.80
2018-09-23T06:52:47.908Z,4.73
2018-09-23T06:55:18.713Z,4.30
2018-09-23T06:57:47.909Z,4.93
2018-09-23T07:00:17.211Z,4.03
2018-09-23T07:02:47.549Z,5.67
2018-09-23T07:05:16.972Z,5.03
2018-09-23T07:07:46.895Z,3.43
2018-09-23T07:10:18.182Z,3.30
2018-09-23T07:12:50.972Z,3.50
2018-09-23T07:15:21.516Z,4.53
2018-09-23T07:17:51.761Z,5.40
2018-09-23T07:20:23.099Z,3.93
2018-09-23T07:22:53.229Z,10.57
2018-09-23T07:25:23.713Z,5.37
2018-09-23T07:27:59.224Z,3.43
2018-09-23T07:30:28.777Z,3.50
2018-09-23T07:32:58.329Z,5.17
2018-09-23T07:35:29.155Z,3.20
2018-09-23T07:37:58.503Z,7.10
2018-09-23T07:40:28.121Z,6.53
2018-09-23T07:42:57.414Z,3.97
2018-09-23T07:45:26.503Z,4.40
2018-09-23T07:47:55.710Z,3.70
2018-09-23T07:50:25.003Z,3.93
2018-09-23T07:52:54.098Z,4.03
2018-09-23T07:55:23.763Z,3.43
2018-09-23T07:57:52.954Z,3.77
2018-09-23T08:00:22.581Z,4.77
2018-09-23T08:02:52.202Z,3.67
2018-09-23T08:05:21.959Z,5.43
2018-09-23T08:07:51.857Z,4.37
2018-09-23T08:10:21.363Z,3.83
2018-09-23T08:12:51.236Z,4.13
2018-09-23T08:15:21.063Z,6.50
2018-09-23T08:17:50.216Z,3.30
2018-09-23T08:20:19.655Z,6.73
2018-09-23T08:22:49.904Z,5.40
2018-09-23T08:25:19.664Z,4.47
2018-09-23T08:27:49.028Z,6.20
2018-09-23T08:30:18.533Z,3.07
2018-09-23T08:32:49.126Z,3.80
2018-09-23T08:35:19.048Z,4.73
2018-09-23T08:37:48.538Z,4.63
2018-09-23T08:40:18.205Z,3.80
2018-09-23T08:42:47.891Z,4.67
2018-09-23T08:45:17.471Z,4.90
2018-09-23T08:47:46.822Z,3.80
2018-09-23T08:50:16.374Z,5.07
2018-09-23T08:52:45.736Z,5.53
2018-09-23T08:55:14.827Z,4.23
2018-09-23T08:57:44.869Z,3.20
2018-09-23T09:00:15.119Z,3.87
2018-09-23T09:02:44.518Z,3.63
2018-09-23T09:05:13.974Z,2.80
2018-09-23T09:07:43.929Z,5.10
2018-09-23T09:10:13.279Z,3.50
2018-09-23T09:12:43.058Z,5.07
2018-09-23T09:15:12.658Z,3.97
2018-09-23T09:17:42.290Z,3.10
2018-09-23T09:20:11.911Z,3.70
2018-09-23T09:22:41.636Z,3.20
2018-09-23T09:25:10.904Z,3.17
2018-09-23T09:27:40.925Z,3.23
2018-09-23T09:30:11.991Z,3.33
2018-09-23T09:32:41.243Z,2.77
2018-09-23T09:35:11.524Z,5.03
2018-09-23T09:37:40.746Z,2.77
2018-09-23T09:40:09.895Z,3.03
2018-09-23T09:42:39.152Z,3.60
2018-09-23T09:45:08.595Z,3.40
2018-09-23T09:47:39.455Z,3.13
2018-09-23T09:50:09.237Z,4.37
2018-09-23T09:52:38.575Z,5.53
2018-09-23T09:55:08.117Z,3.47
2018-09-23T09:57:38.599Z,2.93
2018-09-23T10:00:08.886Z,4.20
2018-09-23T10:02:39.213Z,3.67
2018-09-23T10:05:10.202Z,1.70
2018-09-23T10:07:41.265Z,2.57
2018-09-23T10:10:11.690Z,2.47
2018-09-23T10:12:42.640Z,3.43
2018-09-23T10:15:12.512Z,3.40
2018-09-23T10:17:42.433Z,3.83
2018-09-23T10:20:11.789Z,2.27
2018-09-23T10:22:41.562Z,1.47
2018-09-23T10:25:12.526Z,1.00
2018-09-23T10:27:43.215Z,2.17
2018-09-23T10:30:13.198Z,2.07
2018-09-23T10:32:42.505Z,2.03
2018-09-23T10:35:11.755Z,3.23
2018-09-23T10:37:41.361Z,3.63
2018-09-23T10:40:10.858Z,2.13
2018-09-23T10:42:40.378Z,1.40
2018-09-23T10:45:09.626Z,1.87
2018-09-23T10:47:40.009Z,2.57
2018-09-23T10:50:10.532Z,2.90
2018-09-23T10:52:40.539Z,1.37
2018-09-23T10:55:11.093Z,1.63
2018-09-23T10:57:41.802Z,3.43
2018-09-23T11:00:11.117Z,3.33
2018-09-23T11:02:41.460Z,1.67
2018-09-23T11:05:10.634Z,4.17
2018-09-23T11:07:41.154Z,1.43
2018-09-23T11:10:11.746Z,1.77
2018-09-23T11:12:41.498Z,1.53
2018-09-23T11:15:10.945Z,4.20
2018-09-23T11:17:40.846Z,2.90
2018-09-23T11:20:10.136Z,1.27
2018-09-23T11:22:40.233Z,3.80
2018-09-23T11:25:09.497Z,2.37
2018-09-23T11:27:39.777Z,1.43
2018-09-23T11:30:09.033Z,1.90
2018-09-23T11:32:38.253Z,1.87
2018-09-23T11:35:07.640Z,1.77
2018-09-23T11:37:37.139Z,2.00
2018-09-23T11:40:06.926Z,2.20
2018-09-23T11:42:37.329Z,2.03
2018-09-23T11:45:07.145Z,1.77
2018-09-23T11:47:37.836Z,2.10
2018-09-23T11:50:06.992Z,3.03
2018-09-23T11:52:36.349Z,1.30
2018-09-23T11:55:06.280Z,1.30
2018-09-23T11:57:35.399Z,4.63
2018-09-23T12:00:05.105Z,2.47
2018-09-23T12:02:34.820Z,3.17
2018-09-23T12:05:03.969Z,3.03
2018-09-23T12:07:33.434Z,2.23
2018-09-23T12:10:02.802Z,2.67
2018-09-23T12:12:32.072Z,3.03
2018-09-23T12:15:01.206Z,3.07
2018-09-23T12:17:30.622Z,4.20
2018-09-23T12:20:00.109Z,2.63
2018-09-23T12:22:29.637Z,3.63
2018-09-23T12:24:58.857Z,2.07
2018-09-23T12:27:28.883Z,3.30
2018-09-23T12:29:58.364Z,3.77
2018-09-23T12:32:28.351Z,3.03
2018-09-23T12:34:57.743Z,0.90
2018-09-23T12:37:27.661Z,3.07
2018-09-23T12:39:57.031Z,2.17
2018-09-23T12:42:26.493Z,2.53
2018-09-23T12:44:55.851Z,2.23
2018-09-23T12:47:25.155Z,2.43
2018-09-23T12:49:54.601Z,1.73
2018-09-23T12:52:23.977Z,2.73
2018-09-23T12:54:53.167Z,1.60
2018-09-23T12:57:22.435Z,2.30
2018-09-23T12:59:51.910Z,2.00
2018-09-23T13:02:21.268Z,2.87
2018-09-23T13:04:51.041Z,1.30
2018-09-23T13:07:20.188Z,3.47
2018-09-23T13:09:49.577Z,1.60
2018-09-23T13:12:18.740Z,2.90
2018-09-23T13:14:48.005Z,1.57
2018-09-23T13:17:17.621Z,1.53
2018-09-23T13:19:46.747Z,2.83
2018-09-23T13:22:16.083Z,2.67
2018-09-23T13:24:45.657Z,2.63
2018-09-23T13:27:14.884Z,2.87
2018-09-23T13:29:45.379Z,1.30
2018-09-23T13:32:14.632Z,2.90
2018-09-23T13:34:45.221Z,3.53
2018-09-23T13:37:14.891Z,2.37
2018-09-23T13:39:45.031Z,3.63
2018-09-23T13:42:14.338Z,3.07
2018-09-23T13:44:43.735Z,4.60
2018-09-23T13:47:13.418Z,3.03
2018-09-23T13:49:43.672Z,3.53
2018-09-23T13:52:14.296Z,5.27
2018-09-23T13:54:44.051Z,3.47
2018-09-23T13:57:15.149Z,3.90
2018-09-23T13:59:45.942Z,5.17
2018-09-23T14:02:16.411Z,4.83
2018-09-23T14:04:46.619Z,6.03
2018-09-23T14:07:16.529Z,4.37
2018-09-23T14:09:47.037Z,4.70
2018-09-23T14:12:17.578Z,4.50
2018-09-23T14:14:47.916Z,6.73
2018-09-23T14:17:18.213Z,3.77
2018-09-23T14:19:49.252Z,4.27
2018-09-23T14:22:19.456Z,4.93
2018-09-23T14:24:49.378Z,4.80
2018-09-23T14:27:19.635Z,4.27
2018-09-23T14:29:49.280Z,5.77
2018-09-23T14:32:19.288Z,4.03
2018-09-23T14:34:49.894Z,5.00
2018-09-23T14:37:19.502Z,6.33
2018-09-23T14:39:49.338Z,4.60
2018-09-23T14:42:19.019Z,4.77
2018-09-23T14:44:51.736Z,6.73
2018-09-23T14:47:22.576Z,4.30
2018-09-23T14:49:52.661Z,5.20
2018-09-23T14:52:22.941Z,4.20
2018-09-23T14:54:53.917Z,5.87
2018-09-23T14:57:23.835Z,5.00
2018-09-23T14:59:54.549Z,4.83
2018-09-23T15:02:24.964Z,4.17
2018-09-23T15:04:54.912Z,5.33
2018-09-23T15:07:24.611Z,5.53
2018-09-23T15:09:54.524Z,5.23
2018-09-23T15:12:24.891Z,6.03
2018-09-23T15:14:55.145Z,8.67
2018-09-23T15:17:25.648Z,5.23
2018-09-23T15:19:59.140Z,5.80
2018-09-23T15:22:30.690Z,5.23
2018-09-23T15:25:01.184Z,5.07
2018-09-23T15:27:31.152Z,5.27
2018-09-23T15:30:02.358Z,4.87
2018-09-23T15:32:32.606Z,5.30
2018-09-23T15:35:02.900Z,5.43
2018-09-23T15:37:32.683Z,7.43
2018-09-23T15:40:03.290Z,6.13
2018-09-23T15:42:34.037Z,5.63
2018-09-23T15:45:05.024Z,2.90
2018-09-23T15:47:34.819Z,4.37
2018-09-23T15:50:05.519Z,4.87
2018-09-23T15:52:37.155Z,7.23
2018-09-23T15:55:09.238Z,6.43
2018-09-23T15:57:40.103Z,5.17
2018-09-23T16:00:10.966Z,4.87
2018-09-23T16:02:41.591Z,5.97
2018-09-23T16:05:11.443Z,5.13
2018-09-23T16:07:41.506Z,5.33
2018-09-23T16:10:12.108Z,3.23
2018-09-23T16:12:42.638Z,4.53
2018-09-23T16:15:13.385Z,3.20
2018-09-23T16:17:44.200Z,6.03
2018-09-23T16:20:15.212Z,4.03
2018-09-23T16:22:45.290Z,2.90
2018-09-23T16:25:16.064Z,3.27
2018-09-23T16:27:47.047Z,4.13
2018-09-23T16:30:17.631Z,4.10
2018-09-23T16:32:48.775Z,4.67
2018-09-23T16:35:19.102Z,2.70
2018-09-23T16:37:49.445Z,3.33
2018-09-23T16:40:19.629Z,5.43
2018-09-23T16:42:49.736Z,2.60
2018-09-23T16:45:19.493Z,2.03
2018-09-23T16:47:50.578Z,4.33
2018-09-23T16:50:31.843Z,4.53
2018-09-23T16:53:05.801Z,3.30
2018-09-23T16:55:38.584Z,2.27
2018-09-23T16:58:10.491Z,4.83
2018-09-23T17:00:43.054Z,3.00
2018-09-23T17:03:13.761Z,5.57
2018-09-23T17:05:45.071Z,5.77
2018-09-23T17:08:16.305Z,2.27
2018-09-23T17:10:47.132Z,3.40
2018-09-23T17:13:18.328Z,20.50
2018-09-23T17:15:49.802Z,20.50
2018-09-23T17:18:20.315Z,20.63
2018-09-23T17:20:50.902Z,12.53
2018-09-23T17:23:21.321Z,10.90
2018-09-23T17:25:51.962Z,11.60
2018-09-23T17:28:22.429Z,13.67
2018-09-23T17:30:52.747Z,11.17
2018-09-23T17:33:22.768Z,13.07
2018-09-23T17:35:53.192Z,10.90
2018-09-23T17:38:23.391Z,8.93
2018-09-23T17:40:53.822Z,7.50
2018-09-23T17:43:24.433Z,4.47
2018-09-23T17:45:56.464Z,6.43
2018-09-23T17:48:26.730Z,7.37
2018-09-23T17:50:57.210Z,5.07
2018-09-23T17:53:28.148Z,5.17
2018-09-23T17:55:58.726Z,5.40
2018-09-23T17:58:29.539Z,3.57
2018-09-23T18:00:59.824Z,4.90
2018-09-23T18:03:29.898Z,8.70
2018-09-23T18:06:00.804Z,10.00
2018-09-23T18:08:31.517Z,3.77
2018-09-23T18:11:01.645Z,2.60
2018-09-23T18:13:47.054Z,4.13
2018-09-23T18:16:17.506Z,7.17
2018-09-23T18:18:48.080Z,3.17
2018-09-23T18:21:18.392Z,3.80
2018-09-23T18:23:53.298Z,5.13
2018-09-23T18:26:23.462Z,2.73
2018-09-23T18:28:54.091Z,5.17
2018-09-23T18:31:24.878Z,3.93
2018-09-23T18:33:56.285Z,5.33
2018-09-23T18:36:27.686Z,5.40
2018-09-23T18:38:59.402Z,3.47
2018-09-23T18:41:30.060Z,3.30
2018-09-23T18:44:01.549Z,2.50
2018-09-23T18:48:58.643Z,2.80
2018-09-23T18:51:29.944Z,2.27
2018-09-23T18:54:06.799Z,2.77
2018-09-23T18:56:37.281Z,4.50
2018-09-23T18:59:08.963Z,3.73
2018-09-23T19:01:39.844Z,1.70
2018-09-23T19:04:10.168Z,2.53
2018-09-23T19:09:09.682Z,3.13
2018-09-23T19:14:07.894Z,4.23
2018-09-23T19:16:41.303Z,2.63
2018-09-23T19:19:12.886Z,3.17
2018-09-23T19:21:44.265Z,2.30
2018-09-23T19:24:14.814Z,3.77
2018-09-23T19:26:45.859Z,3.30
2018-09-23T19:29:16.616Z,4.17
2018-09-23T19:31:47.686Z,2.80
2018-09-23T19:34:19.359Z,3.53
2018-09-23T19:36:49.867Z,3.60
2018-09-23T19:39:22.708Z,2.33
2018-09-23T19:41:53.770Z,3.33
2018-09-23T19:44:25.452Z,5.53
2018-09-23T19:46:56.181Z,4.07
2018-09-23T19:49:27.222Z,3.20
2018-09-23T19:51:57.951Z,3.30
2018-09-23T19:54:28.733Z,4.00
2018-09-23T19:56:59.532Z,1.97
2018-09-23T19:59:30.957Z,3.23
2018-09-23T20:02:01.366Z,4.07
2018-09-23T20:04:33.833Z,5.13
2018-09-23T20:07:04.548Z,2.77
2018-09-23T20:09:35.126Z,3.07
2018-09-23T20:12:06.551Z,4.13
2018-09-23T20:14:39.252Z,2.23
2018-09-23T20:17:11.810Z,3.73
2018-09-23T20:19:44.776Z,3.50
2018-09-23T20:22:16.091Z,3.90
2018-09-23T20:24:46.824Z,4.17
2018-09-23T20:27:20.074Z,5.23
2018-09-23T20:29:52.481Z,4.63
2018-09-23T20:32:23.487Z,4.53
2018-09-23T20:34:54.630Z,5.00
2018-09-23T20:37:25.554Z,4.77
2018-09-23T20:39:56.166Z,5.83
2018-09-23T20:42:26.960Z,6.60
2018-09-23T20:44:57.423Z,7.97
2018-09-23T20:47:28.698Z,9.17
2018-09-23T20:49:59.033Z,6.83
2018-09-23T20:52:30.144Z,10.63
2018-09-23T20:55:01.084Z,6.60
2018-09-23T20:57:32.884Z,6.87
2018-09-23T21:00:03.381Z,6.30
2018-09-23T21:02:33.282Z,8.10
2018-09-23T21:05:03.425Z,5.87
2018-09-23T21:07:33.644Z,5.43
2018-09-23T21:10:04.000Z,4.47
2018-09-23T21:12:34.264Z,4.20
2018-09-23T21:15:06.329Z,5.87
2018-09-23T21:17:36.303Z,3.40
2018-09-23T21:20:07.061Z,4.03
2018-09-23T21:22:37.030Z,3.90
2018-09-23T21:25:06.706Z,3.83
2018-09-23T21:27:37.513Z,3.00
2018-09-23T21:30:07.455Z,1.73
2018-09-23T21:32:38.532Z,5.20
2018-09-23T21:35:09.419Z,3.27
2018-09-23T21:37:42.099Z,1.40
2018-09-23T21:40:11.882Z,1.23
2018-09-23T21:42:41.182Z,1.13
2018-09-23T21:45:10.467Z,2.20
2018-09-23T21:47:39.638Z,2.83
2018-09-23T21:50:08.986Z,3.90
2018-09-23T21:52:38.866Z,1.50
2018-09-23T21:55:08.763Z,3.17
2018-09-23T21:57:37.965Z,3.63
2018-09-23T22:00:08.640Z,1.60
2018-09-23T22:02:40.433Z,3.50
2018-09-23T22:05:13.584Z,3.00
2018-09-23T22:07:45.897Z,2.63
2018-09-23T22:10:15.223Z,3.10
2018-09-23T22:12:44.707Z,3.90
2018-09-23T22:15:21.896Z,3.80
2018-09-23T22:17:51.314Z,2.90
2018-09-23T22:20:21.363Z,3.07
2018-09-23T22:22:50.480Z,2.73
2018-09-23T22:25:20.626Z,2.87
2018-09-23T22:27:49.965Z,5.97
2018-09-23T22:30:19.192Z,5.20
2018-09-23T22:32:48.901Z,8.30
2018-09-23T22:35:18.660Z,7.13
2018-09-23T22:37:48.450Z,8.90
2018-09-23T22:40:17.770Z,7.77
2018-09-23T22:42:47.399Z,7.83
2018-09-23T22:45:16.986Z,6.10
2018-09-23T22:47:46.806Z,7.07
2018-09-23T22:50:16.043Z,4.63
2018-09-23T22:52:45.377Z,4.53
2018-09-23T22:55:15.002Z,10.40
2018-09-23T22:57:44.338Z,3.80
2018-09-23T23:00:13.820Z,4.57
2018-09-23T23:02:43.095Z,4.70
2018-09-23T23:05:12.532Z,3.10
2018-09-23T23:07:43.201Z,2.63
2018-09-23T23:10:12.322Z,2.50
2018-09-23T23:12:42.207Z,6.27
2018-09-23T23:15:11.372Z,3.47
2018-09-23T23:17:41.285Z,1.87
2018-09-23T23:20:10.588Z,3.83
2018-09-23T23:22:40.151Z,3.27
2018-09-23T23:25:10.655Z,2.97
2018-09-23T23:27:40.946Z,2.50
2018-09-23T23:30:11.409Z,3.23
2018-09-23T23:32:40.579Z,3.33
2018-09-23T23:35:10.056Z,2.57
2018-09-23T23:37:39.612Z,2.73
2018-09-23T23:40:10.159Z,3.23
2018-09-23T23:42:39.857Z,4.93
2018-09-23T23:45:09.550Z,5.03
2018-09-23T23:47:39.989Z,2.47
2018-09-23T23:50:09.871Z,3.23
2018-09-23T23:52:40.006Z,2.00
2018-09-23T23:55:09.331Z,4.63
2018-09-23T23:57:41.015Z,4.57
